Riverside, CA (92501)

4:31 PM PST on December 04, 2016 (GMT -0800)
Riverside Live Steamers / HUNTER PARK | | Change Station

Elev 980 ft 34.00 °N, 117.34 °W | Updated 7 seconds ago

Clear
Clear
70.7 °F
Feels Like 75 °F
N
2.7
Wind Variable Wind from SSW

Today
High -- | Low -- °F
--% Chance of Precip.
Yesterday
High -- | Low -- °F
Precip. -- in
Pressure 29.95 in
Visibility 10.0 miles
Clouds Clear
Heat Index 75 °F
Dew Point 31 °F
Humidity 23%
Rainfall 0.00 in
Snow Depth Not available.
6:39 AM 4:40 PM
Waxing Crescent, 26% visible
METAR KRAL 042353Z 27006KT 10SM CLR 23/M02 A2998 RMK AO2 SLP142 T02281022 10239 20172 56008
Pressure 29.95 in
Visibility 10.0 miles
Clouds Clear
Heat Index 75 °F
Dew Point 31 °F
Humidity 23%
Rainfall 0.00 in
Snow Depth Not available.
6:39 AM 4:40 PM
Waxing Crescent, 26% visible
METAR KRAL 042353Z 27006KT 10SM CLR 23/M02 A2998 RMK AO2 SLP142 T02281022 10239 20172 56008

10-Day Weather Forecast

Almanac

Astronomy

Dec. 04, 2016 Rise Set
Actual Time
Civil Twilight
Nautical Twilight
Astronomical Twilight
Moon
Length of Visible Light
Length of Day
Tomorrow will be .
, % of the Moon is Illuminated

Today's Extremes

State Highs State Lows

Community

WunderPhotos

Upload Photos

1,955,725 photos uploaded!

WunderBlog® & News

Nearby

Air Quality

  Air Quality AQ Index Pollutant
Not available.

Snow Depth

Station Depth Elevation

Earthquake Activity

City Distance Mag. Time & Date
Minimum magnitude displayed is 2.5.

Coastal Water Temperatures

Place Temperature

Stations

Nearby Weather Stations

Station Location Temp. Windchill Dew Point Humidity Wind Precip. Elev Updated Type
                   

Watches & Warnings

There are currently no watches in effect.